createdAt,value
2022-09-06T00:01:10.761Z,8.48
2022-09-06T00:03:41.305Z,9.38
2022-09-06T00:06:11.414Z,6.65
2022-09-06T00:08:40.036Z,5.93
2022-09-06T00:11:08.524Z,6.88
2022-09-06T00:13:37.536Z,7.70
2022-09-06T00:16:08.122Z,10.02
2022-09-06T00:18:37.029Z,9.23
2022-09-06T00:21:15.463Z,10.15
2022-09-06T00:23:43.770Z,12.68
2022-09-06T00:26:12.207Z,6.38
2022-09-06T00:28:44.716Z,8.55
2022-09-06T00:31:15.086Z,11.52
2022-09-06T00:33:43.544Z,13.15
2022-09-06T00:36:14.375Z,11.63
2022-09-06T00:38:43.748Z,8.18
2022-09-06T00:41:13.895Z,10.57
2022-09-06T00:43:42.884Z,8.43
2022-09-06T00:46:15.264Z,9.40
2022-09-06T00:48:45.868Z,6.88
2022-09-06T00:51:17.875Z,8.73
2022-09-06T00:53:46.319Z,9.13
2022-09-06T00:56:14.669Z,8.88
2022-09-06T00:58:44.112Z,6.50
2022-09-06T01:01:12.473Z,6.05
2022-09-06T01:03:41.335Z,9.80
2022-09-06T01:06:24.539Z,6.93
2022-09-06T01:09:02.106Z,8.15
2022-09-06T01:11:42.433Z,6.95
2022-09-06T01:14:20.187Z,7.95
2022-09-06T01:16:55.560Z,6.90
2022-09-06T01:19:56.669Z,10.68
2022-09-06T01:22:49.907Z,10.40
2022-09-06T01:25:34.685Z,6.38
2022-09-06T01:28:28.946Z,7.85
2022-09-06T01:31:06.497Z,7.25
2022-09-06T01:33:43.442Z,6.28
2022-09-06T01:36:16.602Z,7.68
2022-09-06T01:38:44.984Z,5.78
2022-09-06T01:41:13.719Z,7.80
2022-09-06T01:43:46.896Z,7.22
2022-09-06T01:46:21.545Z,8.52
2022-09-06T01:49:04.617Z,5.45
2022-09-06T01:51:39.128Z,8.65
2022-09-06T01:54:23.928Z,10.02
2022-09-06T01:57:03.125Z,9.52
2022-09-06T01:59:56.789Z,7.68
2022-09-06T02:02:34.361Z,8.52
2022-09-06T02:05:09.664Z,9.00
2022-09-06T02:07:42.911Z,12.95
2022-09-06T02:10:16.404Z,12.25
2022-09-06T02:12:48.679Z,10.32
2022-09-06T02:15:22.712Z,16.08
2022-09-06T02:18:00.189Z,14.55
2022-09-06T02:20:34.596Z,9.40
2022-09-06T02:23:10.249Z,11.32
2022-09-06T02:25:40.653Z,13.32
2022-09-06T02:28:10.182Z,10.48
2022-09-06T02:30:43.145Z,11.18
2022-09-06T02:33:16.276Z,11.32
2022-09-06T02:35:46.655Z,22.73
2022-09-06T02:38:15.518Z,15.40
2022-09-06T02:40:46.540Z,8.75
2022-09-06T02:43:14.570Z,13.98
2022-09-06T02:45:44.060Z,11.13
2022-09-06T02:48:12.334Z,7.30
2022-09-06T02:50:40.499Z,10.20
2022-09-06T02:53:10.303Z,6.68
2022-09-06T02:55:39.228Z,8.10
2022-09-06T02:58:10.005Z,8.43
2022-09-06T03:00:38.951Z,7.68
2022-09-06T03:03:08.611Z,8.98
2022-09-06T03:05:36.743Z,5.30
2022-09-06T03:08:05.006Z,9.10
2022-09-06T03:10:33.103Z,5.47
2022-09-06T03:13:01.687Z,6.45
2022-09-06T03:15:30.128Z,6.20
2022-09-06T03:18:01.286Z,5.07
2022-09-06T03:20:35.029Z,8.15
2022-09-06T03:23:05.449Z,7.05
2022-09-06T03:25:33.882Z,8.30
2022-09-06T03:28:04.017Z,9.57
2022-09-06T03:30:32.616Z,6.35
2022-09-06T03:33:03.182Z,7.28
2022-09-06T03:35:32.792Z,8.30
2022-09-06T03:38:01.097Z,6.88
2022-09-06T03:40:29.343Z,7.60
2022-09-06T03:42:57.753Z,9.90
2022-09-06T03:45:25.750Z,9.15
2022-09-06T03:47:54.024Z,6.75
2022-09-06T03:50:23.339Z,8.13
2022-09-06T03:52:56.661Z,8.77
2022-09-06T03:55:24.940Z,10.50
2022-09-06T03:57:53.368Z,9.65
2022-09-06T04:00:21.890Z,7.90
2022-09-06T04:02:50.004Z,8.10
2022-09-06T04:05:18.316Z,8.80
2022-09-06T04:07:47.350Z,10.55
2022-09-06T04:10:17.283Z,8.25
2022-09-06T04:12:50.130Z,9.13
2022-09-06T04:15:18.351Z,9.90
2022-09-06T04:17:46.744Z,9.23
2022-09-06T04:20:15.722Z,9.23
2022-09-06T04:22:44.018Z,13.13
2022-09-06T04:25:13.765Z,10.73
2022-09-06T04:27:43.119Z,11.73
2022-09-06T04:30:12.105Z,10.02
2022-09-06T04:32:40.420Z,9.98
2022-09-06T04:35:09.495Z,13.90
2022-09-06T04:37:37.473Z,12.65
2022-09-06T04:40:06.344Z,11.95
2022-09-06T04:42:34.593Z,11.48
2022-09-06T04:45:04.422Z,14.05
2022-09-06T04:47:33.164Z,12.30
2022-09-06T04:50:05.069Z,14.45
2022-09-06T04:52:33.389Z,14.73
2022-09-06T04:55:01.672Z,12.02
2022-09-06T04:57:29.924Z,13.65
2022-09-06T04:59:58.083Z,11.73
2022-09-06T05:02:27.716Z,12.15
2022-09-06T05:04:57.208Z,12.98
2022-09-06T05:07:25.260Z,13.77
2022-09-06T05:09:56.703Z,12.40
2022-09-06T05:12:24.960Z,11.63
2022-09-06T05:14:52.910Z,11.15
2022-09-06T05:17:20.887Z,12.02
2022-09-06T05:19:50.300Z,11.18
2022-09-06T05:22:18.320Z,12.02
2022-09-06T05:24:46.620Z,12.82
2022-09-06T05:27:14.628Z,12.07
2022-09-06T05:29:42.987Z,14.40
2022-09-06T05:32:11.171Z,17.73
2022-09-06T05:34:42.328Z,11.60
2022-09-06T05:37:12.309Z,12.55
2022-09-06T05:39:41.208Z,11.98
2022-09-06T05:42:09.717Z,14.18
2022-09-06T05:44:38.619Z,12.20
2022-09-06T05:47:07.743Z,12.63
2022-09-06T05:49:35.825Z,14.93
2022-09-06T05:52:04.220Z,14.35
2022-09-06T05:54:34.008Z,13.85
2022-09-06T05:57:02.428Z,11.77
2022-09-06T05:59:30.701Z,12.55
2022-09-06T06:01:59.148Z,13.82
2022-09-06T06:04:27.517Z,15.27
2022-09-06T06:06:55.612Z,14.20
2022-09-06T06:09:23.921Z,13.20
2022-09-06T06:11:54.276Z,13.68
2022-09-06T06:14:22.502Z,14.95
2022-09-06T06:16:52.413Z,10.95
2022-09-06T06:19:24.527Z,14.30
2022-09-06T06:21:52.652Z,10.75
2022-09-06T06:24:21.137Z,13.90
2022-09-06T06:26:49.544Z,13.45
2022-09-06T06:29:19.635Z,15.93
2022-09-06T06:31:47.842Z,13.60
2022-09-06T06:34:16.607Z,10.32
2022-09-06T06:36:44.843Z,11.95
2022-09-06T06:39:15.595Z,16.15
2022-09-06T06:41:43.860Z,11.35
2022-09-06T06:44:13.630Z,11.52
2022-09-06T06:46:43.916Z,9.90
2022-09-06T06:49:15.339Z,10.25
2022-09-06T06:51:43.515Z,13.20
2022-09-06T06:54:11.470Z,11.55
2022-09-06T06:56:42.304Z,13.13
2022-09-06T06:59:10.613Z,9.77
2022-09-06T07:01:39.517Z,9.00
2022-09-06T07:04:10.530Z,12.82
2022-09-06T07:12:29.469Z,12.20
2022-09-06T07:14:57.719Z,8.75
2022-09-06T07:17:25.919Z,12.65
2022-09-06T07:22:43.819Z,10.15
2022-09-06T07:25:14.440Z,9.73
2022-09-06T07:30:19.626Z,9.90
2022-09-06T07:32:47.771Z,11.73
2022-09-06T07:35:20.402Z,13.82
2022-09-06T07:37:55.594Z,10.00
2022-09-06T07:40:24.075Z,10.07
2022-09-06T07:42:56.011Z,8.98
2022-09-06T07:45:23.952Z,10.60
2022-09-06T07:50:51.126Z,10.45
2022-09-06T07:53:29.259Z,9.45
2022-09-06T07:56:00.431Z,9.02
2022-09-06T07:58:29.447Z,9.05
2022-09-06T08:01:16.492Z,14.55
2022-09-06T08:03:45.159Z,10.80
2022-09-06T08:06:18.696Z,7.88
2022-09-06T08:09:01.925Z,11.30
2022-09-06T08:11:32.080Z,8.02
2022-09-06T08:14:05.250Z,10.52
2022-09-06T08:16:34.952Z,10.10
2022-09-06T08:19:05.290Z,10.40
2022-09-06T08:21:35.273Z,11.27
2022-09-06T08:24:05.867Z,12.63
2022-09-06T08:26:36.207Z,9.63
2022-09-06T08:29:09.236Z,10.25
2022-09-06T08:31:39.681Z,14.20
2022-09-06T08:34:08.230Z,13.75
2022-09-06T08:36:38.200Z,9.45
2022-09-06T08:39:09.103Z,12.25
2022-09-06T08:41:47.736Z,12.27
2022-09-06T08:47:10.360Z,9.80
2022-09-06T08:49:41.444Z,11.55
2022-09-06T08:52:49.541Z,13.13
2022-09-06T08:55:34.257Z,11.57
2022-09-06T08:58:16.233Z,12.13
2022-09-06T09:00:51.143Z,14.32
2022-09-06T09:03:21.622Z,8.95
2022-09-06T09:05:53.733Z,11.70
2022-09-06T09:08:27.331Z,12.10
2022-09-06T09:11:01.489Z,12.48
2022-09-06T09:13:35.987Z,9.63
2022-09-06T09:16:05.164Z,10.18
2022-09-06T09:18:36.563Z,10.95
2022-09-06T09:23:42.008Z,10.38
2022-09-06T09:26:15.709Z,11.73
2022-09-06T09:29:09.019Z,12.70
2022-09-06T09:31:40.723Z,13.07
2022-09-06T09:34:15.058Z,11.23
2022-09-06T09:39:39.472Z,11.75
2022-09-06T09:42:09.262Z,6.78
2022-09-06T09:44:43.843Z,7.22
2022-09-06T09:47:25.713Z,9.93
2022-09-06T09:49:53.931Z,9.25
2022-09-06T09:52:28.418Z,7.38
2022-09-06T09:55:02.350Z,9.05
2022-09-06T09:57:33.047Z,10.05
2022-09-06T10:00:02.146Z,7.43
2022-09-06T10:02:35.833Z,6.75
2022-09-06T10:05:07.884Z,10.23
2022-09-06T10:07:42.921Z,12.50
2022-09-06T10:10:16.123Z,9.23
2022-09-06T10:12:45.156Z,10.68
2022-09-06T10:15:33.553Z,9.27
2022-09-06T10:18:01.911Z,12.70
2022-09-06T10:20:36.400Z,11.13
2022-09-06T10:23:11.745Z,11.52
2022-09-06T10:25:49.969Z,8.80
2022-09-06T10:28:41.906Z,10.15
2022-09-06T10:31:36.762Z,7.57
2022-09-06T10:34:19.939Z,8.07
2022-09-06T10:37:00.919Z,8.02
2022-09-06T10:39:53.225Z,9.55
2022-09-06T10:42:33.957Z,7.40
2022-09-06T10:50:45.587Z,8.63
2022-09-06T10:53:20.612Z,7.93
2022-09-06T10:55:53.941Z,11.10
2022-09-06T11:01:28.512Z,9.30
2022-09-06T11:04:04.470Z,7.35
2022-09-06T11:06:44.975Z,8.13
2022-09-06T11:09:19.453Z,8.13
2022-09-06T11:11:55.088Z,5.07
2022-09-06T11:14:30.440Z,7.43
2022-09-06T11:17:06.259Z,8.23
2022-09-06T11:19:45.282Z,8.32
2022-09-06T11:22:53.936Z,5.80
2022-09-06T11:25:36.149Z,7.63
2022-09-06T11:28:09.812Z,5.93
2022-09-06T11:30:44.439Z,6.70
2022-09-06T11:33:25.102Z,8.38
2022-09-06T11:36:15.907Z,11.27
2022-09-06T11:38:44.263Z,9.07
2022-09-06T11:41:17.311Z,6.22
2022-09-06T11:43:49.176Z,9.75
2022-09-06T11:47:00.260Z,9.27
2022-09-06T11:49:39.395Z,9.23
2022-09-06T11:52:59.845Z,8.15
2022-09-06T11:55:38.952Z,6.65
2022-09-06T11:58:13.809Z,6.07
2022-09-06T12:00:42.105Z,7.57
2022-09-06T12:06:20.602Z,8.38
2022-09-06T12:08:50.146Z,5.97
2022-09-06T12:11:44.054Z,3.63
2022-09-06T12:14:32.452Z,5.88
2022-09-06T12:17:30.432Z,7.75
2022-09-06T12:20:06.533Z,7.05
2022-09-06T12:22:56.057Z,7.90
2022-09-06T12:25:53.253Z,8.35
2022-09-06T12:28:34.949Z,6.68
2022-09-06T12:31:25.331Z,7.25
2022-09-06T12:33:54.875Z,5.82
2022-09-06T12:36:29.964Z,7.50
2022-09-06T12:39:06.532Z,8.40
2022-09-06T12:41:43.654Z,6.90
2022-09-06T12:44:15.476Z,6.90
2022-09-06T12:46:50.463Z,5.35
2022-09-06T12:49:22.397Z,6.15
2022-09-06T12:51:50.609Z,4.10
2022-09-06T12:54:26.322Z,7.63
2022-09-06T12:56:55.981Z,8.88
2022-09-06T12:59:28.530Z,6.07
2022-09-06T13:02:02.024Z,4.88
2022-09-06T13:04:36.632Z,7.10
2022-09-06T13:07:07.124Z,6.32
2022-09-06T13:09:41.467Z,6.95
2022-09-06T13:12:21.608Z,6.20
2022-09-06T13:14:54.034Z,7.47
2022-09-06T13:19:55.619Z,7.40
2022-09-06T13:22:41.668Z,9.68
2022-09-06T13:25:20.801Z,4.68
2022-09-06T13:27:52.301Z,3.78
2022-09-06T13:30:37.274Z,8.85
2022-09-06T13:33:06.871Z,5.55
2022-09-06T13:35:37.185Z,10.40
2022-09-06T13:38:33.640Z,7.45
2022-09-06T13:41:13.754Z,7.88
2022-09-06T13:43:48.660Z,7.80
2022-09-06T13:46:17.136Z,4.18
2022-09-06T13:48:45.514Z,8.00
2022-09-06T13:51:14.369Z,6.45
2022-09-06T13:53:42.962Z,6.53
2022-09-06T13:56:13.419Z,4.57
2022-09-06T13:58:41.770Z,5.85
2022-09-06T14:01:14.534Z,7.85
2022-09-06T14:03:43.543Z,4.85
2022-09-06T14:06:12.528Z,6.30
2022-09-06T14:09:05.757Z,4.50
2022-09-06T14:11:31.138Z,4.75
2022-09-06T14:14:08.788Z,4.95
2022-09-06T14:16:39.306Z,10.02
2022-09-06T14:19:10.068Z,5.95
2022-09-06T14:21:39.616Z,5.47
2022-09-06T14:24:10.252Z,8.02
2022-09-06T14:26:44.068Z,5.00
2022-09-06T14:29:17.785Z,8.02
2022-09-06T14:31:50.540Z,7.00
2022-09-06T14:34:18.473Z,7.55
2022-09-06T14:36:46.436Z,5.63
2022-09-06T14:39:15.416Z,6.50
2022-09-06T14:41:46.655Z,5.75
2022-09-06T14:44:16.074Z,5.18
2022-09-06T14:46:44.443Z,7.07
2022-09-06T14:49:13.584Z,5.88
2022-09-06T14:51:43.633Z,7.07
2022-09-06T14:54:13.793Z,5.70
2022-09-06T14:56:45.978Z,5.18
2022-09-06T14:59:14.593Z,7.03
2022-09-06T15:01:47.261Z,7.05
2022-09-06T15:04:18.824Z,8.10
2022-09-06T15:06:49.244Z,8.52
2022-09-06T15:09:18.520Z,11.90
2022-09-06T15:11:52.884Z,8.43
2022-09-06T15:14:23.402Z,7.95
2022-09-06T15:16:56.945Z,7.50
2022-09-06T15:19:26.968Z,8.63
2022-09-06T15:21:58.318Z,6.63
2022-09-06T15:24:29.727Z,4.40
2022-09-06T15:26:59.864Z,8.43
2022-09-06T15:29:28.506Z,7.15
2022-09-06T15:31:58.140Z,7.50
2022-09-06T15:34:30.920Z,7.78
2022-09-06T15:37:00.615Z,7.25
2022-09-06T15:39:31.490Z,7.82
2022-09-06T15:42:01.578Z,8.50
2022-09-06T15:44:30.240Z,6.65
2022-09-06T15:46:59.464Z,5.45
2022-09-06T15:49:29.609Z,5.97
2022-09-06T15:51:59.399Z,6.10
2022-09-06T15:54:43.319Z,9.25
2022-09-06T15:57:13.870Z,6.07
2022-09-06T15:59:42.495Z,6.95
2022-09-06T16:02:11.394Z,8.60
2022-09-06T16:04:39.655Z,6.95
2022-09-06T16:07:08.553Z,3.90
2022-09-06T16:09:37.404Z,6.28
2022-09-06T16:12:07.744Z,9.02
2022-09-06T16:14:38.739Z,7.10
2022-09-06T16:17:06.924Z,8.02
2022-09-06T16:19:35.837Z,6.60
2022-09-06T16:22:04.346Z,10.35
2022-09-06T16:24:35.492Z,12.00
2022-09-06T16:27:03.552Z,5.22
2022-09-06T16:29:31.993Z,11.50
2022-09-06T16:32:06.171Z,8.32
2022-09-06T16:34:34.584Z,7.03
2022-09-06T16:37:07.771Z,7.00
2022-09-06T16:39:36.298Z,6.90
2022-09-06T16:42:08.043Z,6.93
2022-09-06T16:44:38.200Z,6.50
2022-09-06T16:47:14.679Z,7.50
2022-09-06T16:49:44.745Z,7.38
2022-09-06T16:52:15.108Z,7.55
2022-09-06T16:54:43.483Z,5.88
2022-09-06T16:57:11.739Z,8.65
2022-09-06T16:59:43.546Z,9.35
2022-09-06T17:02:14.007Z,6.50
2022-09-06T17:04:42.618Z,7.75
2022-09-06T17:07:11.965Z,7.82
2022-09-06T17:09:40.196Z,11.57
2022-09-06T17:12:09.472Z,7.82
2022-09-06T17:14:37.960Z,7.72
2022-09-06T17:17:05.417Z,8.45
2022-09-06T17:19:38.242Z,9.65
2022-09-06T17:24:42.743Z,12.75
2022-09-06T17:27:11.412Z,8.25
2022-09-06T17:29:42.082Z,7.13
2022-09-06T17:32:13.137Z,8.55
2022-09-06T17:34:42.544Z,8.85
2022-09-06T17:37:10.712Z,9.27
2022-09-06T17:39:40.366Z,9.13
2022-09-06T17:42:08.944Z,9.38
2022-09-06T17:44:37.475Z,9.90
2022-09-06T17:47:12.970Z,8.88
2022-09-06T17:49:44.005Z,5.60
2022-09-06T17:52:13.688Z,10.30
2022-09-06T17:54:41.998Z,7.78
2022-09-06T17:57:16.826Z,7.93
2022-09-06T17:59:45.690Z,10.48
2022-09-06T18:02:16.037Z,10.43
2022-09-06T18:04:47.043Z,7.60
2022-09-06T18:07:15.190Z,9.15
2022-09-06T18:09:43.266Z,10.98
2022-09-06T18:12:11.925Z,6.88
2022-09-06T18:14:41.338Z,8.73
2022-09-06T18:17:10.740Z,8.70
2022-09-06T18:19:39.531Z,10.05
2022-09-06T18:22:09.269Z,7.40
2022-09-06T18:24:38.452Z,8.02
2022-09-06T18:27:06.883Z,9.20
2022-09-06T18:29:37.633Z,9.80
2022-09-06T18:32:11.361Z,6.10
2022-09-06T18:34:39.550Z,10.77
2022-09-06T18:37:09.178Z,10.85
2022-09-06T18:39:37.346Z,10.05
2022-09-06T18:42:13.381Z,7.78
2022-09-06T18:44:42.117Z,7.45
2022-09-06T18:47:12.222Z,10.55
2022-09-06T18:49:43.965Z,7.07
2022-09-06T18:52:14.698Z,9.13
2022-09-06T18:54:43.699Z,9.30
2022-09-06T18:57:13.443Z,6.35
2022-09-06T18:59:42.594Z,9.18
2022-09-06T19:02:10.853Z,9.18
2022-09-06T19:04:39.740Z,8.93
2022-09-06T19:07:08.515Z,12.45
2022-09-06T19:09:38.582Z,9.38
2022-09-06T19:12:07.386Z,12.35
2022-09-06T19:14:39.875Z,10.60
2022-09-06T19:17:09.516Z,12.57
2022-09-06T19:19:40.613Z,14.00
2022-09-06T19:22:09.019Z,9.85
2022-09-06T19:24:40.178Z,9.98
2022-09-06T19:27:12.542Z,16.92
2022-09-06T19:29:41.033Z,11.25
2022-09-06T19:32:09.227Z,8.18
2022-09-06T19:34:38.984Z,9.50
2022-09-06T19:37:07.262Z,12.18
2022-09-06T19:39:37.276Z,15.55
2022-09-06T19:42:07.456Z,11.93
2022-09-06T19:44:37.697Z,12.38
2022-09-06T19:47:06.300Z,11.20
2022-09-06T19:49:39.657Z,11.50
2022-09-06T19:52:10.582Z,11.50
2022-09-06T19:54:39.472Z,12.57
2022-09-06T19:57:11.482Z,12.48
2022-09-06T19:59:42.544Z,17.80
2022-09-06T20:02:10.944Z,16.60
2022-09-06T20:04:39.316Z,14.13
2022-09-06T20:07:07.414Z,11.15
2022-09-06T20:09:35.732Z,11.90
2022-09-06T20:12:04.786Z,11.63
2022-09-06T20:14:35.484Z,11.32
2022-09-06T20:17:29.575Z,14.52
2022-09-06T20:19:51.669Z,14.65
2022-09-06T20:22:19.689Z,12.50
2022-09-06T20:24:48.447Z,8.95
2022-09-06T20:27:19.369Z,12.55
2022-09-06T20:29:48.842Z,12.40
2022-09-06T20:32:19.244Z,9.80
2022-09-06T20:34:51.388Z,11.88
2022-09-06T20:37:20.154Z,9.37
2022-09-06T20:39:48.645Z,10.10
2022-09-06T20:42:17.657Z,10.00
2022-09-06T20:44:45.933Z,9.95
2022-09-06T20:47:17.172Z,10.00
2022-09-06T20:49:45.900Z,10.13
2022-09-06T20:52:14.017Z,10.15
2022-09-06T20:54:44.198Z,13.73
2022-09-06T20:57:13.638Z,11.20
2022-09-06T20:59:41.744Z,9.05
2022-09-06T21:02:09.804Z,7.22
2022-09-06T21:04:41.019Z,7.18
2022-09-06T21:07:12.135Z,9.32
2022-09-06T21:09:41.472Z,10.20
2022-09-06T21:12:09.577Z,9.02
2022-09-06T21:14:37.669Z,8.07
2022-09-06T21:17:08.731Z,8.30
2022-09-06T21:19:39.471Z,7.25
2022-09-06T21:22:07.692Z,9.65
2022-09-06T21:24:36.358Z,6.38
2022-09-06T21:27:05.034Z,8.65
2022-09-06T21:29:33.435Z,7.78
2022-09-06T21:32:01.865Z,12.55
2022-09-06T21:34:32.649Z,8.30
2022-09-06T21:37:02.475Z,8.55
2022-09-06T21:39:34.114Z,9.82
2022-09-06T21:42:03.240Z,9.38
2022-09-06T21:44:31.542Z,11.15
2022-09-06T21:47:00.508Z,14.02
2022-09-06T21:49:30.978Z,9.65
2022-09-06T21:51:59.102Z,9.10
2022-09-06T21:54:29.245Z,10.63
2022-09-06T21:56:58.669Z,10.70
2022-09-06T21:59:26.756Z,8.88
2022-09-06T22:01:57.555Z,9.32
2022-09-06T22:04:26.236Z,12.27
2022-09-06T22:06:54.783Z,10.02
2022-09-06T22:09:23.065Z,11.32
2022-09-06T22:11:57.207Z,8.40
2022-09-06T22:14:25.346Z,8.50
2022-09-06T22:16:57.697Z,7.68
2022-09-06T22:19:25.952Z,7.68
2022-09-06T22:21:54.838Z,10.88
2022-09-06T22:24:23.602Z,9.35
2022-09-06T22:26:53.914Z,8.30
2022-09-06T22:29:27.540Z,9.30
2022-09-06T22:31:59.210Z,11.90
2022-09-06T22:34:27.963Z,8.68
2022-09-06T22:36:56.137Z,8.63
2022-09-06T22:39:24.160Z,8.35
2022-09-06T22:41:54.192Z,11.73
2022-09-06T22:44:22.375Z,9.90
2022-09-06T22:46:50.906Z,12.50
2022-09-06T22:49:19.435Z,7.57
2022-09-06T22:51:48.119Z,8.98
2022-09-06T22:54:17.305Z,9.48
2022-09-06T22:56:45.871Z,8.20
2022-09-06T22:59:15.308Z,10.25
2022-09-06T23:01:43.678Z,10.43
2022-09-06T23:04:12.342Z,10.55
2022-09-06T23:06:42.862Z,8.20
2022-09-06T23:09:11.715Z,8.82
2022-09-06T23:11:40.131Z,10.95
2022-09-06T23:14:08.737Z,12.05
2022-09-06T23:16:41.182Z,11.50
2022-09-06T23:19:10.831Z,10.07
2022-09-06T23:21:39.125Z,13.30
2022-09-06T23:24:08.496Z,13.23
2022-09-06T23:26:38.033Z,10.98
2022-09-06T23:29:08.630Z,11.18
2022-09-06T23:31:38.131Z,11.95
2022-09-06T23:34:06.726Z,13.15
2022-09-06T23:36:34.924Z,13.13
2022-09-06T23:39:03.182Z,12.93
2022-09-06T23:41:31.903Z,11.60
2022-09-06T23:44:00.915Z,11.73
2022-09-06T23:46:29.109Z,10.35
2022-09-06T23:48:58.993Z,13.02
2022-09-06T23:51:27.139Z,10.45
2022-09-06T23:53:55.372Z,12.38
2022-09-06T23:56:23.649Z,11.25
2022-09-06T23:58:51.722Z,10.57
